Time;durP1;ratioP1;P1;durP2;ratioP2;P2;SDS_P1;SDS_P2;PMS_P1;PMS_P2;Temp;Humidity;BMP_temperature;BMP_pressure;BME280_temperature;BME280_humidity;BME280_pressure;Samples;Min_cycle;Max_cycle;Signal;HPM_P1;HPM_P2
2024/01/16 00:00:34;;;;;;;12.77;2.40;;;;;;;-1.16;100.00;100684.78;5070493;28;20047;-48
2024/01/16 00:03:06;;;;;;;9.50;2.83;;;;;;;-1.12;100.00;100681.25;5070041;28;20044;-53
2024/01/16 00:05:34;;;;;;;12.70;2.58;;;;;;;-1.17;100.00;100690.81;5070411;28;20124;-51
2024/01/16 00:08:02;;;;;;;7.15;2.22;;;;;;;-1.17;100.00;100688.22;5070672;28;20046;-51
2024/01/16 00:10:30;;;;;;;7.80;2.25;;;;;;;-1.15;100.00;100686.50;5073121;28;20083;-51
2024/01/16 00:12:59;;;;;;;9.55;2.10;;;;;;;-1.19;100.00;100688.28;5073870;28;20051;-48
2024/01/16 00:15:31;;;;;;;11.13;1.92;;;;;;;-1.18;100.00;100689.13;5073683;28;20044;-47
2024/01/16 00:17:59;;;;;;;7.95;1.80;;;;;;;-1.23;100.00;100684.91;5073846;28;20407;-48
2024/01/16 00:20:27;;;;;;;5.65;1.60;;;;;;;-1.24;100.00;100682.34;5073777;28;20044;-46
2024/01/16 00:22:56;;;;;;;5.55;1.73;;;;;;;-1.27;100.00;100688.44;5073769;28;20050;-47
2024/01/16 00:25:24;;;;;;;7.72;1.90;;;;;;;-1.29;100.00;100682.44;5073119;28;20045;-47
2024/01/16 00:27:52;;;;;;;7.32;2.08;;;;;;;-1.29;100.00;100679.84;5069978;28;20121;-46
2024/01/16 00:30:20;;;;;;;6.68;1.77;;;;;;;-1.31;100.00;100686.78;5069824;28;20048;-45
2024/01/16 00:32:50;;;;;;;8.00;1.83;;;;;;;-1.39;100.00;100694.66;5068229;28;20048;-47
2024/01/16 00:35:18;;;;;;;6.45;1.60;;;;;;;-1.36;100.00;100692.03;5070236;28;20102;-47
2024/01/16 00:37:46;;;;;;;7.75;1.48;;;;;;;-1.39;100.00;100697.25;5072807;28;20054;-46
2024/01/16 00:40:14;;;;;;;10.57;1.90;;;;;;;-1.39;100.00;100696.38;5070229;28;20045;-46
2024/01/16 00:42:42;;;;;;;10.23;1.63;;;;;;;-1.40;100.00;100698.09;5071114;28;20055;-45
2024/01/16 00:45:11;;;;;;;7.78;1.67;;;;;;;-1.39;100.00;100709.28;5073385;28;20059;-46
2024/01/16 00:47:39;;;;;;;8.35;2.05;;;;;;;-1.40;100.00;100699.84;5073346;28;20040;-46
2024/01/16 00:50:12;;;;;;;6.03;1.52;;;;;;;-1.45;100.00;100707.66;5073118;28;20128;-46
2024/01/16 00:52:40;;;;;;;8.18;1.83;;;;;;;-1.48;100.00;100710.28;5073170;28;20361;-47
2024/01/16 00:55:09;;;;;;;6.07;2.05;;;;;;;-1.48;100.00;100714.63;5072696;28;20557;-46
2024/01/16 00:57:37;;;;;;;8.05;2.22;;;;;;;-1.49;100.00;100726.66;5072691;28;20040;-45
2024/01/16 01:00:06;;;;;;;8.30;2.15;;;;;;;-1.52;100.00;100728.44;5073028;28;20111;-46
2024/01/16 01:02:34;;;;;;;7.30;1.30;;;;;;;-1.51;100.00;100731.00;5072010;28;20515;-47
2024/01/16 01:05:03;;;;;;;9.90;1.75;;;;;;;-1.51;100.00;100733.56;5072693;28;20114;-46
2024/01/16 01:07:32;;;;;;;10.40;2.28;;;;;;;-1.49;100.00;100731.81;5072730;28;20126;-48
2024/01/16 01:10:00;;;;;;;4.03;1.40;;;;;;;-1.47;100.00;100745.53;5072576;28;20052;-46
2024/01/16 01:12:29;;;;;;;5.80;1.40;;;;;;;-1.44;100.00;100742.06;5070261;28;20051;-48
2024/01/16 01:14:56;;;;;;;7.35;1.70;;;;;;;-1.42;100.00;100743.75;5068846;28;20067;-51
2024/01/16 01:17:24;;;;;;;8.50;1.60;;;;;;;-1.41;100.00;100742.00;5072408;28;20048;-48
2024/01/16 01:19:53;;;;;;;9.48;2.50;;;;;;;-1.43;100.00;100748.91;5071285;28;20373;-46
2024/01/16 01:22:21;;;;;;;6.72;1.52;;;;;;;-1.37;100.00;100743.66;5069388;28;20499;-49
2024/01/16 01:24:51;;;;;;;10.13;1.85;;;;;;;-1.39;100.00;100738.53;5071173;28;20094;-50
2024/01/16 01:27:19;;;;;;;10.18;2.47;;;;;;;-1.35;100.00;100726.41;5072223;28;20044;-46
2024/01/16 01:29:47;;;;;;;4.38;1.60;;;;;;;-1.42;100.00;100724.81;5072197;28;20044;-48
2024/01/16 01:32:15;;;;;;;10.50;2.08;;;;;;;-1.43;100.00;100723.09;5072272;28;20091;-48
2024/01/16 01:34:47;;;;;;;6.85;1.88;;;;;;;-1.46;100.00;100720.59;5072554;28;20480;-46
2024/01/16 01:37:15;;;;;;;5.78;2.53;;;;;;;-1.45;100.00;100730.03;5072357;28;20051;-48
2024/01/16 01:39:43;;;;;;;8.68;1.70;;;;;;;-1.43;100.00;100734.28;5072281;28;20036;-45
2024/01/16 01:42:13;;;;;;;8.18;2.00;;;;;;;-1.44;100.00;100736.91;5072142;28;20849;-46
2024/01/16 01:44:41;;;;;;;7.75;2.00;;;;;;;-1.47;100.00;100730.06;5071658;28;20084;-48
2024/01/16 01:47:13;;;;;;;7.00;2.33;;;;;;;-1.49;100.00;100730.97;5067916;28;20106;-47
2024/01/16 01:49:42;;;;;;;10.35;2.00;;;;;;;-1.51;100.00;100723.25;5070256;28;20407;-47
2024/01/16 01:52:10;;;;;;;8.10;2.20;;;;;;;-1.51;100.00;100727.53;5070654;28;20048;-46
2024/01/16 01:54:41;;;;;;;6.75;2.05;;;;;;;-1.52;100.00;100731.88;5072029;28;20381;-46
2024/01/16 01:57:14;;;;;;;;;;;;;;;-1.53;100.00;100732.72;5072784;28;20583;-46
2024/01/16 01:59:42;;;;;;;8.90;2.10;;;;;;;-1.54;100.00;100738.75;5072160;28;20367;-46
2024/01/16 02:02:12;;;;;;;8.30;2.22;;;;;;;-1.57;100.00;100739.69;5071921;28;20044;-47
2024/01/16 02:04:41;;;;;;;8.65;2.55;;;;;;;-1.58;100.00;100737.97;5069346;28;20161;-47
2024/01/16 02:07:11;;;;;;;8.82;2.65;;;;;;;-1.59;100.00;100738.00;5067175;28;20056;-48
2024/01/16 02:09:41;;;;;;;6.53;2.28;;;;;;;-1.57;100.00;100738.81;5071592;28;20045;-47
2024/01/16 02:12:10;;;;;;;10.80;3.05;;;;;;;-1.59;100.00;100738.84;5071604;28;20045;-47
2024/01/16 02:14:42;;;;;;;8.43;2.83;;;;;;;-1.61;100.00;100730.31;5070176;28;20094;-45
2024/01/16 02:17:10;;;;;;;6.72;2.50;;;;;;;-1.63;100.00;100736.34;5071630;28;20052;-46
2024/01/16 02:19:39;;;;;;;8.82;3.05;;;;;;;-1.64;100.00;100732.06;5071597;28;20072;-45
2024/01/16 02:22:13;;;;;;;11.23;3.30;;;;;;;-1.66;100.00;100734.69;5071712;28;20542;-46
2024/01/16 02:24:43;;;;;;;6.82;3.03;;;;;;;-1.66;100.00;100728.66;5070873;28;20411;-47
2024/01/16 02:27:11;;;;;;;10.00;3.70;;;;;;;-1.68;100.00;100727.84;5068042;28;20515;-47
2024/01/16 02:29:42;;;;;;;11.88;3.60;;;;;;;-1.70;100.00;100735.59;5070479;28;20040;-49
2024/01/16 02:32:12;;;;;;;9.00;3.70;;;;;;;-1.69;100.00;100732.16;5071483;28;20064;-50
2024/01/16 02:34:41;;;;;;;12.57;4.43;;;;;;;-1.65;100.00;100744.13;5070209;28;20556;-46
2024/01/16 02:37:09;;;;;;;10.95;4.03;;;;;;;-1.66;100.00;100734.69;5071482;28;20139;-45
2024/01/16 02:39:37;;;;;;;10.48;4.70;;;;;;;-1.67;100.00;100735.53;5071524;28;20048;-47
2024/01/16 02:42:07;;;;;;;10.63;4.90;;;;;;;-1.62;100.00;100744.06;5071830;28;20115;-51
2024/01/16 02:44:35;;;;;;;11.13;5.65;;;;;;;-1.65;100.00;100743.25;5071319;28;20047;-49
2024/01/16 02:47:06;;;;;;;10.88;5.93;;;;;;;-1.66;100.00;100750.16;5070953;28;20119;-46
2024/01/16 02:49:36;;;;;;;13.38;6.22;;;;;;;-1.63;100.00;100757.84;5067735;28;20050;-46
2024/01/16 02:52:05;;;;;;;13.57;7.00;;;;;;;-1.60;100.00;100752.63;5066421;28;20568;-46
2024/01/16 02:54:34;;;;;;;17.42;6.15;;;;;;;-1.59;100.00;100758.66;5067843;28;20041;-45
2024/01/16 02:57:02;;;;;;;12.48;7.03;;;;;;;-1.58;100.00;100761.19;5070758;28;20047;-49
2024/01/16 02:59:34;;;;;;;15.10;7.60;;;;;;;-1.55;100.00;100760.31;5071379;28;20408;-46
2024/01/16 03:02:02;;;;;;;14.98;6.93;;;;;;;-1.49;100.00;100759.34;5071179;28;20044;-46
2024/01/16 03:04:30;;;;;;;14.80;7.13;;;;;;;-1.50;100.00;100755.94;5069024;28;20052;-48
2024/01/16 03:06:59;;;;;;;13.02;6.85;;;;;;;-1.41;100.00;100749.75;5067868;28;20044;-47
2024/01/16 03:09:27;;;;;;;12.52;6.97;;;;;;;-1.38;100.00;100747.97;5069556;28;20591;-46
2024/01/16 03:11:55;;;;;;;16.58;7.05;;;;;;;-1.32;100.00;100741.84;5071137;28;20411;-46
2024/01/16 03:14:28;;;;;;;12.10;6.50;;;;;;;-1.31;100.00;100753.88;5071203;28;20368;-47
2024/01/16 03:16:57;;;;;;;13.07;6.25;;;;;;;-1.32;100.00;100754.75;5071331;28;20053;-46
2024/01/16 03:19:28;;;;;;;15.15;6.70;;;;;;;-1.28;100.00;100740.91;5071312;28;20477;-46
2024/01/16 03:21:56;;;;;;;14.35;5.95;;;;;;;-1.25;100.00;100738.28;5071479;28;20040;-47
2024/01/16 03:24:26;;;;;;;15.10;6.22;;;;;;;-1.25;100.00;100740.84;5070909;28;20106;-45
2024/01/16 03:26:57;;;;;;;15.95;5.82;;;;;;;-1.25;100.00;100733.13;5072480;28;20113;-45
2024/01/16 03:29:25;;;;;;;10.95;4.90;;;;;;;-1.19;100.00;100739.88;5071167;28;20052;-47
2024/01/16 03:31:54;;;;;;;11.90;5.07;;;;;;;-1.20;100.00;100740.75;5070786;28;20037;-46
2024/01/16 03:34:24;;;;;;;13.00;5.03;;;;;;;-1.18;100.00;100740.75;5073250;28;20525;-47
2024/01/16 03:36:53;;;;;;;13.48;5.50;;;;;;;-1.16;100.00;100742.41;5074746;28;20748;-46
2024/01/16 03:39:22;;;;;;;14.30;4.70;;;;;;;-1.15;100.00;100738.13;5074656;28;20056;-45
2024/01/16 03:41:53;;;;;;;12.93;5.25;;;;;;;-1.15;100.00;100738.13;5074583;28;20067;-49
2024/01/16 03:44:21;;;;;;;14.68;5.75;;;;;;;-1.14;100.00;100729.50;5074284;28;20469;-46
2024/01/16 03:46:52;;;;;;;12.77;5.20;;;;;;;-1.12;100.00;100733.72;5074408;28;20072;-48
2024/01/16 03:49:21;;;;;;;11.73;5.40;;;;;;;-1.10;100.00;100731.16;5074225;28;20050;-45
2024/01/16 03:51:50;;;;;;;12.80;5.22;;;;;;;-1.11;100.00;100730.28;5074379;28;20514;-48
2024/01/16 03:54:18;;;;;;;14.35;5.28;;;;;;;-1.09;100.00;100735.41;5074213;28;20064;-47
2024/01/16 03:56:47;;;;;;;13.43;5.25;;;;;;;-1.09;100.00;100732.81;5074075;28;20047;-46
2024/01/16 03:59:15;;;;;;;12.32;5.47;;;;;;;-1.11;100.00;100729.44;5074169;28;20102;-48
2024/01/16 04:01:47;;;;;;;11.05;4.90;;;;;;;-1.08;100.00;100726.78;5074174;28;20052;-46
2024/01/16 04:04:16;;;;;;;13.85;4.78;;;;;;;-1.08;100.00;100729.38;5074130;28;20106;-49
2024/01/16 04:06:44;;;;;;;10.57;4.15;;;;;;;-1.05;100.00;100729.31;5073569;28;20411;-50
2024/01/16 04:09:14;;;;;;;8.68;4.10;;;;;;;-1.05;100.00;100730.19;5073703;28;20064;-48
2024/01/16 04:11:42;;;;;;;10.48;4.00;;;;;;;-1.04;100.00;100733.59;5073668;28;20049;-46
2024/01/16 04:14:10;;;;;;;10.73;4.00;;;;;;;-1.05;100.00;100737.91;5070829;28;20265;-50
2024/01/16 04:16:39;;;;;;;8.88;3.80;;;;;;;-1.04;100.00;100736.19;5070381;28;20123;-47
2024/01/16 04:19:07;;;;;;;11.48;4.15;;;;;;;-1.03;100.00;100737.88;5070782;28;20044;-47
2024/01/16 04:21:37;;;;;;;10.10;3.40;;;;;;;-1.03;100.00;100737.88;5073952;28;20044;-47
2024/01/16 04:24:05;;;;;;;11.77;3.63;;;;;;;-1.02;100.00;100740.44;5074002;28;20049;-49
2024/01/16 04:26:36;;;;;;;9.50;3.50;;;;;;;-0.98;100.00;100746.41;5069791;28;20127;-48
2024/01/16 04:29:05;;;;;;;6.78;3.05;;;;;;;-0.94;100.00;100749.75;5069718;28;20053;-47
2024/01/16 04:31:40;;;;;;;8.15;3.13;;;;;;;-0.97;100.00;100745.50;5069717;28;20098;-49
2024/01/16 04:34:08;;;;;;;9.68;3.15;;;;;;;-0.94;100.00;100747.19;5071164;28;20102;-47
2024/01/16 04:36:36;;;;;;;9.73;3.42;;;;;;;-0.91;100.00;100750.56;5073663;28;20040;-47
2024/01/16 04:39:04;;;;;;;6.68;2.65;;;;;;;-0.92;100.00;100748.00;5073609;28;20484;-46
2024/01/16 04:41:33;;;;;;;11.45;3.13;;;;;;;-0.95;100.00;100741.19;5073567;28;20498;-47
2024/01/16 04:44:02;;;;;;;8.82;3.00;;;;;;;-0.88;100.00;100747.06;5073838;28;20511;-49
2024/01/16 04:46:31;;;;;;;8.90;3.38;;;;;;;-0.91;100.00;100747.13;5073372;28;20049;-46
2024/01/16 04:48:59;;;;;;;10.10;3.45;;;;;;;-0.92;100.00;100740.25;5073707;28;20048;-47
2024/01/16 04:51:27;;;;;;;9.52;3.72;;;;;;;-0.92;100.00;100738.53;5073236;28;20496;-46
2024/01/16 04:53:55;;;;;;;11.60;4.20;;;;;;;-0.89;100.00;100741.03;5072940;28;20048;-46
2024/01/16 04:56:23;;;;;;;10.68;4.25;;;;;;;-0.90;100.00;100738.50;5072166;28;20053;-46
2024/01/16 04:58:52;;;;;;;7.70;3.80;;;;;;;-0.89;100.00;100730.72;5069271;28;20098;-47
2024/01/16 05:01:21;;;;;;;10.13;3.45;;;;;;;-0.87;100.00;100734.13;5071411;28;20048;-49
2024/01/16 05:03:50;;;;;;;14.75;3.90;;;;;;;-0.88;100.00;100732.41;5073055;28;20087;-46
2024/01/16 05:06:18;;;;;;;8.20;4.03;;;;;;;-0.88;100.00;100726.41;5071815;28;20075;-47
2024/01/16 05:08:46;;;;;;;9.82;4.13;;;;;;;-0.93;100.00;100729.06;5072813;28;20045;-45
2024/01/16 05:11:14;;;;;;;14.32;4.55;;;;;;;-0.92;100.00;100725.63;5071574;28;20048;-46
2024/01/16 05:13:42;;;;;;;9.80;4.40;;;;;;;-0.90;100.00;100717.84;5072748;28;20439;-48
2024/01/16 05:16:10;;;;;;;12.43;5.88;;;;;;;-0.93;100.00;100708.41;5072862;28;20139;-46
2024/01/16 05:18:42;;;;;;;9.30;4.50;;;;;;;-0.91;100.00;100704.09;5071534;28;20147;-46
2024/01/16 05:21:11;;;;;;;10.50;4.70;;;;;;;-0.90;100.00;100698.03;5072284;28;20068;-50
2024/01/16 05:23:39;;;;;;;11.85;5.20;;;;;;;-0.92;100.00;100704.97;5068656;28;20048;-55
2024/01/16 05:26:07;;;;;;;12.50;4.85;;;;;;;-0.88;100.00;100701.44;5068900;28;20056;-51
2024/01/16 05:28:35;;;;;;;9.73;4.40;;;;;;;-0.88;100.00;100698.00;5069990;28;20055;-50
2024/01/16 05:31:07;;;;;;;9.90;4.50;;;;;;;-0.88;100.00;100696.25;5069167;28;20076;-49
2024/01/16 05:33:35;;;;;;;8.63;4.78;;;;;;;-0.88;100.00;100698.84;5068548;28;20052;-52
2024/01/16 05:36:08;;;;;;;9.85;3.72;;;;;;;-0.86;100.00;100688.47;5069213;28;20048;-54
2024/01/16 05:38:37;;;;;;;9.50;3.83;;;;;;;-0.86;100.00;100688.47;5069541;28;20221;-49
2024/01/16 05:41:06;;;;;;;7.57;3.13;;;;;;;-0.90;100.00;100694.59;5069085;28;20044;-49
2024/01/16 05:43:34;;;;;;;11.02;4.32;;;;;;;-0.91;100.00;100683.44;5068205;28;20108;-52
2024/01/16 05:46:02;;;;;;;7.97;3.22;;;;;;;-0.91;100.00;100685.16;5071306;28;20535;-50
2024/01/16 05:48:30;;;;;;;9.75;2.70;;;;;;;-0.90;100.00;100679.97;5071456;28;20051;-49
2024/01/16 05:50:59;;;;;;;10.82;2.90;;;;;;;-0.90;100.00;100673.94;5069745;28;20060;-49
2024/01/16 05:53:28;;;;;;;7.10;2.40;;;;;;;-0.89;100.00;100673.06;5068763;28;20419;-50
2024/01/16 05:55:57;;;;;;;3.78;1.95;;;;;;;-0.90;100.00;100671.34;5068583;28;20040;-51
2024/01/16 05:58:25;;;;;;;9.52;2.38;;;;;;;-0.88;100.00;100674.78;5071248;28;20132;-50
2024/01/16 06:00:53;;;;;;;6.55;2.67;;;;;;;-0.87;100.00;100677.31;5067781;28;20048;-53
2024/01/16 06:03:21;;;;;;;11.23;2.65;;;;;;;-0.90;100.00;100668.78;5068070;28;20415;-51
2024/01/16 06:05:49;;;;;;;10.07;2.38;;;;;;;-0.93;100.00;100671.44;5068677;28;20056;-52
2024/01/16 06:08:18;;;;;;;7.40;2.08;;;;;;;-0.94;100.00;100660.25;5070491;28;20052;-48
2024/01/16 06:10:48;;;;;;;7.25;2.33;;;;;;;-0.93;100.00;100671.44;5071896;28;20044;-51
2024/01/16 06:13:16;;;;;;;6.60;2.03;;;;;;;-0.90;100.00;100666.19;5071706;28;20051;-49
2024/01/16 06:15:45;;;;;;;8.43;2.17;;;;;;;-0.92;100.00;100667.97;5071761;28;20074;-52
2024/01/16 06:18:13;;;;;;;5.70;1.95;;;;;;;-0.91;100.00;100662.78;5071767;28;20102;-49
2024/01/16 06:20:41;;;;;;;7.18;2.22;;;;;;;-0.91;100.00;100673.09;5070285;28;20072;-50
2024/01/16 06:23:09;;;;;;;7.97;2.63;;;;;;;-0.89;100.00;100673.91;5068254;28;20121;-51
2024/01/16 06:25:37;;;;;;;8.77;2.83;;;;;;;-0.89;100.00;100668.72;5068482;28;20427;-49
2024/01/16 06:28:07;;;;;;;9.40;3.35;;;;;;;-0.94;100.00;100668.00;5067601;28;20044;-53
2024/01/16 06:30:36;;;;;;;8.25;3.58;;;;;;;-0.94;100.00;100678.34;5067984;28;20110;-50
2024/01/16 06:33:04;;;;;;;11.13;3.95;;;;;;;-0.95;100.00;100665.47;5067742;28;20044;-51
2024/01/16 06:35:33;;;;;;;10.38;4.10;;;;;;;-0.95;100.00;100668.88;5068175;28;20048;-49
2024/01/16 06:38:02;;;;;;;10.90;3.72;;;;;;;-0.96;100.00;100677.50;5068381;28;20074;-46
2024/01/16 06:40:30;;;;;;;10.32;3.65;;;;;;;-0.92;100.00;100676.56;5067796;28;20053;-50
2024/01/16 06:42:58;;;;;;;11.32;3.58;;;;;;;-0.92;100.00;100679.13;5069925;28;20049;-49
2024/01/16 06:45:28;;;;;;;9.43;3.83;;;;;;;-0.88;100.00;100674.78;5067793;28;20093;-46
2024/01/16 06:47:56;;;;;;;9.13;3.40;;;;;;;-0.89;100.00;100673.06;5069128;28;20114;-46
2024/01/16 06:50:25;;;;;;;10.43;3.40;;;;;;;-0.89;100.00;100673.06;5070257;28;20078;-45
2024/01/16 06:52:53;;;;;;;9.15;3.35;;;;;;;-0.91;100.00;100675.69;5070038;28;20056;-46
2024/01/16 06:55:21;;;;;;;8.52;3.17;;;;;;;-0.90;100.00;100674.81;5071474;28;20503;-45
2024/01/16 06:57:49;;;;;;;8.88;3.10;;;;;;;-0.93;100.00;100680.00;5071482;28;20045;-45
2024/01/16 07:00:18;;;;;;;9.85;3.25;;;;;;;-0.90;100.00;100677.38;5103896;28;20139;-47
2024/01/16 07:02:48;;;;;;;4.47;2.42;;;;;;;-0.89;100.00;100675.66;5074989;28;20044;-47
2024/01/16 07:05:16;;;;;;;9.60;3.03;;;;;;;-0.82;100.00;100673.78;5074897;28;20061;-46
2024/01/16 07:07:45;;;;;;;8.13;2.70;;;;;;;-0.83;100.00;100677.25;5075230;28;20056;-45
2024/01/16 07:10:18;;;;;;;12.55;3.25;;;;;;;-0.82;100.00;100673.78;5075113;28;20048;-46
2024/01/16 07:12:47;;;;;;;9.40;3.40;;;;;;;-0.87;100.00;100672.16;5075240;28;20518;-47
2024/01/16 07:15:15;;;;;;;10.45;3.25;;;;;;;-0.86;100.00;100678.16;5075034;28;20564;-46
2024/01/16 07:17:43;;;;;;;9.82;3.15;;;;;;;-0.85;100.00;100679.88;5074846;28;20055;-46
2024/01/16 07:20:13;;;;;;;8.05;3.00;;;;;;;-0.83;100.00;100674.66;5075196;28;20118;-46
2024/01/16 07:22:41;;;;;;;10.38;3.47;;;;;;;-0.81;100.00;100681.50;5074548;28;20063;-45
2024/01/16 07:25:10;;;;;;;7.97;3.50;;;;;;;-0.82;100.00;100678.97;5074819;28;20115;-45
2024/01/16 07:27:38;;;;;;;10.80;3.25;;;;;;;-0.81;100.00;100686.66;5074935;28;20542;-47
2024/01/16 07:30:07;;;;;;;8.98;3.58;;;;;;;-0.79;100.00;100687.50;5074981;28;20127;-47
2024/01/16 07:32:35;;;;;;;12.15;3.90;;;;;;;-0.81;100.00;100681.50;5074777;28;20525;-46
2024/01/16 07:35:04;;;;;;;8.05;3.90;;;;;;;-0.78;100.00;100685.75;5073862;28;20159;-48
2024/01/16 07:37:33;;;;;;;9.75;3.83;;;;;;;-0.77;100.00;100685.72;5071421;28;20044;-47
2024/01/16 07:40:02;;;;;;;14.90;5.57;;;;;;;-0.76;100.00;100678.84;5073185;28;20067;-45
2024/01/16 07:42:34;;;;;;;12.38;5.20;;;;;;;-0.76;100.00;100687.44;5074946;28;20040;-47
2024/01/16 07:45:04;;;;;;;11.68;5.35;;;;;;;-0.75;100.00;100696.00;5074446;28;20567;-46
2024/01/16 07:47:36;;;;;;;17.13;5.70;;;;;;;-0.73;100.00;100705.44;5074699;28;20048;-47
2024/01/16 07:50:05;;;;;;;13.70;5.25;;;;;;;-0.72;100.00;100701.97;5072930;28;20075;-45
2024/01/16 07:52:37;;;;;;;13.75;5.45;;;;;;;-0.75;100.00;100701.19;5074598;28;20480;-46
2024/01/16 07:55:06;;;;;;;18.10;7.25;;;;;;;-0.80;100.00;100703.88;5074201;28;20403;-47
2024/01/16 07:57:34;;;;;;;11.07;6.60;;;;;;;-0.77;100.00;100711.56;5073753;28;20553;-50
2024/01/16 08:00:03;;;;;;;15.82;7.07;;;;;;;-0.76;100.00;100718.44;5073801;28;20083;-45
2024/01/16 08:02:33;;;;;;;16.85;7.47;;;;;;;-0.78;100.00;100703.84;5073807;28;20056;-47
2024/01/16 08:05:02;;;;;;;17.92;7.65;;;;;;;-0.76;100.00;100707.25;5073832;28;20049;-46
2024/01/16 08:07:31;;;;;;;17.58;7.03;;;;;;;-0.78;100.00;100706.41;5073943;28;20044;-44
2024/01/16 08:10:00;;;;;;;16.00;7.10;;;;;;;-0.79;100.00;100715.03;5073987;28;20036;-45
2024/01/16 08:12:29;;;;;;;14.57;7.30;;;;;;;-0.75;100.00;100720.13;5073692;28;20411;-45
2024/01/16 08:14:57;;;;;;;15.55;7.55;;;;;;;-0.74;100.00;100724.38;5073939;28;20040;-47
2024/01/16 08:17:25;;;;;;;14.15;7.40;;;;;;;-0.72;100.00;100726.97;5073899;28;20048;-46
2024/01/16 08:19:54;;;;;;;14.13;7.78;;;;;;;-0.75;100.00;100727.88;5073933;28;20079;-46
2024/01/16 08:22:22;;;;;;;16.63;7.97;;;;;;;-0.76;100.00;100723.59;5074032;28;20533;-48
2024/01/16 08:24:50;;;;;;;18.23;8.57;;;;;;;-0.73;100.00;100723.53;5073898;28;20041;-46
2024/01/16 08:27:20;;;;;;;13.23;7.85;;;;;;;-0.73;100.00;100720.94;5071981;28;20053;-47
2024/01/16 08:29:49;;;;;;;15.18;8.05;;;;;;;-0.72;100.00;100726.97;5070210;28;20060;-48
2024/01/16 08:32:18;;;;;;;16.02;7.90;;;;;;;-0.75;100.00;100721.84;5072774;28;20053;-46
2024/01/16 08:34:46;;;;;;;15.38;8.02;;;;;;;-0.73;100.00;100722.69;5070399;28;20419;-47
2024/01/16 08:37:15;;;;;;;18.75;8.13;;;;;;;-0.72;100.00;100716.63;5070403;28;20561;-46
2024/01/16 08:39:43;;;;;;;14.73;7.38;;;;;;;-0.76;100.00;100717.59;5073240;28;20052;-47
2024/01/16 08:42:12;;;;;;;15.77;8.13;;;;;;;-0.75;100.00;100724.44;5073440;28;20507;-46
2024/01/16 08:44:42;;;;;;;13.70;6.63;;;;;;;-0.73;100.00;100723.53;5073507;28;20496;-47
2024/01/16 08:47:13;;;;;;;13.55;6.70;;;;;;;-0.78;100.00;100725.34;5073324;28;20051;-46
2024/01/16 08:49:41;;;;;;;14.20;6.90;;;;;;;-0.76;100.00;100717.59;5070285;28;20533;-48
2024/01/16 08:52:10;;;;;;;14.48;6.53;;;;;;;-0.76;100.00;100720.16;5070857;28;20046;-45
2024/01/16 08:54:39;;;;;;;17.55;6.57;;;;;;;-0.78;100.00;100727.06;5073213;28;20411;-49
2024/01/16 08:57:07;;;;;;;12.15;6.22;;;;;;;-0.80;100.00;100726.28;5073152;28;20080;-49
2024/01/16 08:59:35;;;;;;;13.70;6.38;;;;;;;-0.81;100.00;100734.91;5069855;28;20055;-46
2024/01/16 09:02:05;;;;;;;12.05;5.75;;;;;;;-0.81;100.00;100729.72;5068254;28;20055;-48
2024/01/16 09:04:34;;;;;;;11.00;5.78;;;;;;;-0.78;100.00;100727.91;5068808;28;20060;-48
2024/01/16 09:07:04;;;;;;;13.50;6.20;;;;;;;-0.80;100.00;100721.09;5070931;28;20517;-49
2024/01/16 09:09:33;;;;;;;11.70;5.07;;;;;;;-0.81;100.00;100719.41;5072914;28;20145;-48
2024/01/16 09:12:04;;;;;;;12.18;5.78;;;;;;;-0.83;100.00;100715.97;5072880;28;20055;-48
2024/01/16 09:14:33;;;;;;;15.77;5.72;;;;;;;-0.87;100.00;100716.06;5071225;28;20399;-51
2024/01/16 09:17:01;;;;;;;14.43;5.32;;;;;;;-0.82;100.00;100728.88;5071955;28;20041;-45
2024/01/16 09:19:32;;;;;;;11.68;4.90;;;;;;;-0.81;100.00;100722.81;5068828;28;20041;-46
2024/01/16 09:22:00;;;;;;;13.07;5.55;;;;;;;-0.76;100.00;100725.34;5069416;28;20403;-46
2024/01/16 09:24:28;;;;;;;10.65;5.07;;;;;;;-0.76;100.00;100721.00;5071010;28;20044;-47
2024/01/16 09:26:58;;;;;;;14.10;5.05;;;;;;;-0.74;100.00;100723.56;5075586;28;20139;-46
2024/01/16 09:29:27;;;;;;;15.30;4.80;;;;;;;-0.71;100.00;100726.06;5072697;28;20078;-45
2024/01/16 09:31:55;;;;;;;10.25;5.60;;;;;;;-0.70;100.00;100720.03;5071409;28;20507;-48
2024/01/16 09:34:23;;;;;;;11.95;5.20;;;;;;;-0.69;100.00;100717.41;5068093;28;20392;-48
2024/01/16 09:36:59;;;;;;;8.90;4.53;;;;;;;-0.71;100.00;100718.31;5071256;28;20605;-47
2024/01/16 09:39:27;;;;;;;12.52;5.07;;;;;;;-0.66;100.00;100713.91;5072161;28;20075;-46
2024/01/16 09:42:00;;;;;;;9.07;4.07;;;;;;;-0.62;100.00;100712.97;5072688;28;20060;-45
2024/01/16 09:44:29;;;;;;;10.98;4.70;;;;;;;-0.57;100.00;100710.31;5070862;28;20131;-46
2024/01/16 09:47:00;;;;;;;13.60;4.80;;;;;;;-0.56;100.00;100702.53;5068640;28;20131;-46
2024/01/16 09:49:30;;;;;;;13.32;4.38;;;;;;;-0.54;100.00;100708.50;5068450;28;20106;-48
2024/01/16 09:52:01;;;;;;;8.23;4.40;;;;;;;-0.48;100.00;100715.25;5071516;28;20135;-47
2024/01/16 09:54:30;;;;;;;11.00;4.18;;;;;;;-0.42;100.00;100719.47;5071928;28;20052;-47
2024/01/16 09:57:00;;;;;;;12.40;4.80;;;;;;;-0.41;100.00;100714.25;5072070;28;20071;-46
2024/01/16 09:59:32;;;;;;;11.02;4.95;;;;;;;-0.43;100.00;100712.59;5071974;28;20101;-46
2024/01/16 10:02:05;;;;;;;13.38;4.55;;;;;;;-0.48;100.00;100707.50;5071973;28;20052;-48
2024/01/16 10:04:35;;;;;;;10.57;4.35;;;;;;;-0.45;100.00;100709.19;5071680;28;20061;-49
2024/01/16 10:07:06;;;;;;;11.07;4.13;;;;;;;-0.49;100.00;100700.66;5068710;28;20060;-47
2024/01/16 10:09:34;;;;;;;9.23;4.00;;;;;;;-0.48;100.00;100696.31;5068384;28;20476;-47
2024/01/16 10:12:03;;;;;;;9.27;4.15;;;;;;;-0.43;100.00;100707.41;5071862;28;20545;-46
2024/01/16 10:14:31;;;;;;;10.30;3.85;;;;;;;-0.43;100.00;100703.09;5070276;28;20119;-47
2024/01/16 10:17:02;;;;;;;10.77;4.30;;;;;;;-0.26;100.00;100704.44;5071671;28;20511;-47
2024/01/16 10:19:30;;;;;;;10.05;4.05;;;;;;;-0.27;100.00;100702.75;5071675;28;20064;-47
2024/01/16 10:22:19;;;;;;;;;;;;;;;-0.20;100.00;100696.56;5072693;28;20440;-47
2024/01/16 10:25:05;;;;;;;9.60;4.15;;;;;;;-0.10;100.00;100694.63;5071743;28;20011;-50
2024/01/16 10:27:33;;;;;;;8.88;3.70;;;;;;;-0.06;100.00;100706.59;5071133;28;20082;-50
2024/01/16 10:30:02;;;;;;;9.13;4.13;;;;;;;-0.08;100.00;100693.69;5070392;28;20565;-51
2024/01/16 10:32:34;;;;;;;13.38;4.18;;;;;;;-0.05;100.00;100685.03;5067260;28;20426;-46
2024/01/16 10:35:04;;;;;;;10.70;3.70;;;;;;;-0.07;100.00;100686.78;5069490;28;20041;-48
2024/01/16 10:37:42;;;;;;;10.75;3.65;;;;;;;-0.02;100.00;100688.38;5071495;28;20060;-47
2024/01/16 10:40:10;;;;;;;9.00;4.10;;;;;;;-0.01;100.00;100678.91;5071450;28;20582;-48
2024/01/16 10:42:40;;;;;;;8.68;3.38;;;;;;;0.03;100.00;100684.81;5071689;28;20731;-48
2024/01/16 10:45:08;;;;;;;8.60;3.65;;;;;;;0.09;100.00;100682.09;5071359;28;20070;-48
2024/01/16 10:47:37;;;;;;;11.05;3.95;;;;;;;0.05;100.00;100683.06;5071142;28;20070;-48
2024/01/16 10:50:09;;;;;;;7.32;3.03;;;;;;;0.02;100.00;100680.56;5071363;28;20056;-48
2024/01/16 10:52:47;;;;;;;7.80;3.50;;;;;;;-0.01;100.00;100686.66;5071496;28;20068;-48
2024/01/16 10:55:22;;;;;;;8.63;3.53;;;;;;;0.02;100.00;100685.75;5070035;28;20566;-50
2024/01/16 10:57:52;;;;;;;9.15;3.15;;;;;;;0.02;100.00;100680.56;5067758;28;20080;-48
2024/01/16 11:00:21;;;;;;;9.35;3.10;;;;;;;0.09;100.00;100675.19;5068060;28;20055;-47
2024/01/16 11:02:55;;;;;;;10.25;3.50;;;;;;;0.11;100.00;100691.53;5067314;28;20051;-46
2024/01/16 11:05:24;;;;;;;8.52;3.05;;;;;;;0.12;100.00;100689.78;5068035;28;20077;-47
2024/01/16 11:08:00;;;;;;;7.15;3.15;;;;;;;0.16;100.00;100692.28;5071504;28;20123;-48
2024/01/16 11:10:29;;;;;;;9.93;3.70;;;;;;;0.21;100.00;100694.75;5071422;28;20530;-47
2024/01/16 11:13:01;;;;;;;7.72;2.97;;;;;;;0.22;100.00;100690.41;5071246;28;20048;-47
2024/01/16 11:15:30;;;;;;;6.72;3.38;;;;;;;0.28;100.00;100690.25;5070790;28;20059;-53
2024/01/16 11:18:00;;;;;;;7.05;2.92;;;;;;;0.33;100.00;100686.66;5067590;28;20501;-48
2024/01/16 11:20:29;;;;;;;8.13;3.35;;;;;;;0.41;100.00;100691.66;5068969;28;20040;-49
2024/01/16 11:23:19;;;;;;;9.43;3.03;;;;;;;0.40;100.00;100682.19;5071396;28;20060;-48